Time;durP1;ratioP1;P1;durP2;ratioP2;P2;SDS_P1;SDS_P2;PMS_P1;PMS_P2;Temp;Humidity;BMP_temperature;BMP_pressure;BME280_temperature;BME280_humidity;BME280_pressure;Samples;Min_cycle;Max_cycle;Signal;HPM_P1;HPM_P2
2022/05/30 00:01:18;;;;;;;0.25;0.20;;;23.60;47.40;;;;;;4890591;29;20048;-62
2022/05/30 00:03:45;;;;;;;0.10;0.10;;;23.60;47.40;;;;;;4890758;29;20077;-61
2022/05/30 00:06:16;;;;;;;0.10;0.10;;;23.60;47.40;;;;;;4891008;29;20124;-61
2022/05/30 00:08:44;;;;;;;0.20;0.20;;;23.60;47.40;;;;;;4889886;29;20505;-61
2022/05/30 00:11:14;;;;;;;0.08;0.08;;;23.60;47.40;;;;;;4890031;29;20104;-61
2022/05/30 00:13:42;;;;;;;0.40;0.17;;;23.60;47.40;;;;;;4889619;29;20088;-61
2022/05/30 00:16:13;;;;;;;0.20;0.20;;;23.60;47.30;;;;;;4891090;29;20095;-62
2022/05/30 00:18:41;;;;;;;0.20;0.20;;;23.60;47.30;;;;;;4889509;29;20079;-61
2022/05/30 00:21:09;;;;;;;0.20;0.20;;;23.70;47.40;;;;;;4884860;29;20401;-61
2022/05/30 00:23:36;;;;;;;0.10;0.10;;;23.60;47.30;;;;;;4890476;29;20101;-61
2022/05/30 00:26:07;;;;;;;0.20;0.20;;;23.60;47.30;;;;;;4891077;29;20048;-61
2022/05/30 00:28:36;;;;;;;0.30;0.30;;;23.70;47.30;;;;;;4889501;29;20053;-63
2022/05/30 00:31:07;;;;;;;0.20;0.20;;;23.70;47.30;;;;;;4891013;29;20112;-61
2022/05/30 00:33:35;;;;;;;0.10;0.10;;;23.70;47.30;;;;;;4891048;29;20048;-61
2022/05/30 00:36:02;;;;;;;0.73;0.20;;;23.70;47.30;;;;;;4890819;29;20049;-61
2022/05/30 00:38:29;;;;;;;0.20;0.20;;;23.70;47.30;;;;;;4890478;29;20080;-61
2022/05/30 00:40:57;;;;;;;0.10;0.10;;;23.70;47.30;;;;;;4890438;29;20112;-61
2022/05/30 00:43:33;;;;;;;1.30;0.20;;;23.70;47.30;;;;;;4890576;29;20116;-61
2022/05/30 00:46:06;;;;;;;0.47;0.45;;;23.70;47.30;;;;;;4890982;29;20052;-61
2022/05/30 00:48:38;;;;;;;0.17;0.10;;;23.60;47.30;;;;;;4889957;29;20419;-61
2022/05/30 00:51:14;;;;;;;0.10;0.08;;;23.70;47.30;;;;;;4889592;29;20049;-61
2022/05/30 00:53:44;;;;;;;1.00;0.28;;;23.60;47.20;;;;;;4887075;29;20435;-61
2022/05/30 00:56:13;;;;;;;0.70;0.20;;;23.60;47.30;;;;;;4890564;29;20108;-62
2022/05/30 00:58:46;;;;;;;0.28;0.28;;;23.70;47.30;;;;;;4889151;29;20577;-61
2022/05/30 01:01:14;;;;;;;0.17;0.17;;;23.60;47.30;;;;;;4890422;29;20522;-62
2022/05/30 01:06:45;;;;;;;0.03;0.03;;;23.60;47.20;;;;;;4889155;29;20057;-61
2022/05/30 01:09:17;;;;;;;0.10;0.10;;;23.60;47.30;;;;;;4890480;29;20061;-62
2022/05/30 01:11:58;;;;;;;0.20;0.20;;;23.60;47.30;;;;;;4889347;29;20287;-61
2022/05/30 01:14:38;;;;;;;0.20;0.20;;;23.60;47.30;;;;;;4889215;29;20123;-65
2022/05/30 01:17:08;;;;;;;0.15;0.15;;;23.60;47.30;;;;;;4890620;29;20136;-63
2022/05/30 01:20:00;;;;;;;0.32;0.30;;;23.60;47.30;;;;;;4890387;29;20064;-64
2022/05/30 01:23:01;;;;;;;0.10;0.10;;;23.60;47.30;;;;;;4889339;29;20103;-67
2022/05/30 01:25:47;;;;;;;;;;;23.60;47.30;;;;;;4890048;29;20502;-62
2022/05/30 01:28:55;;;;;;;0.20;0.20;;;23.60;47.20;;;;;;4890510;29;19983;-62
2022/05/30 01:31:23;;;;;;;0.20;0.20;;;23.60;47.30;;;;;;4891371;29;20077;-62
2022/05/30 01:33:51;;;;;;;0.10;0.10;;;23.60;47.30;;;;;;4893850;29;20056;-62
2022/05/30 01:36:22;;;;;;;0.82;0.20;;;23.60;47.30;;;;;;4893688;29;20080;-62
2022/05/30 01:38:49;;;;;;;0.10;0.10;;;23.60;47.30;;;;;;4893884;29;20052;-62
2022/05/30 01:41:17;;;;;;;0.20;0.13;;;23.60;47.30;;;;;;4893550;29;20048;-62
2022/05/30 01:43:45;;;;;;;0.10;0.10;;;23.60;47.30;;;;;;4894091;29;20057;-62
2022/05/30 01:46:16;;;;;;;0.40;0.20;;;23.60;47.30;;;;;;4894154;29;20058;-62
2022/05/30 01:48:45;;;;;;;0.30;0.30;;;23.60;47.30;;;;;;4892293;29;20103;-62
2022/05/30 01:51:14;;;;;;;0.10;0.10;;;23.60;47.30;;;;;;4894072;29;20049;-62
2022/05/30 01:53:42;;;;;;;0.10;0.10;;;23.60;47.30;;;;;;4893744;29;20055;-62
2022/05/30 01:56:09;;;;;;;0.30;0.30;;;23.60;47.30;;;;;;4887756;29;20052;-62
2022/05/30 01:58:36;;;;;;;0.13;0.10;;;23.60;47.30;;;;;;4893497;29;20056;-62
2022/05/30 02:01:19;;;;;;;0.43;0.17;;;23.60;47.30;;;;;;4893472;29;20044;-62
2022/05/30 02:03:48;;;;;;;0.10;0.10;;;23.70;47.30;;;;;;4893570;29;20207;-62
2022/05/30 02:06:16;;;;;;;0.13;0.13;;;23.60;47.20;;;;;;4892916;29;20061;-62
2022/05/30 02:08:44;;;;;;;0.10;0.10;;;23.70;47.20;;;;;;4893607;29;20064;-62
2022/05/30 02:11:11;;;;;;;0.10;0.10;;;23.70;47.20;;;;;;4893243;29;20049;-62
2022/05/30 02:13:38;;;;;;;0.30;0.20;;;23.70;47.20;;;;;;4892943;29;20127;-62
2022/05/30 02:18:59;;;;;;;0.20;0.13;;;23.70;47.20;;;;;;4893192;29;20136;-62
2022/05/30 02:21:29;;;;;;;0.32;0.15;;;23.70;47.20;;;;;;4892991;29;20052;-62
2022/05/30 02:23:56;;;;;;;0.20;0.20;;;23.70;47.20;;;;;;4892240;29;20052;-62
2022/05/30 02:26:24;;;;;;;0.20;0.20;;;23.70;47.20;;;;;;4889684;29;20454;-62
2022/05/30 02:28:51;;;;;;;0.10;0.10;;;23.70;47.20;;;;;;4892569;29;20087;-61
2022/05/30 02:31:18;;;;;;;1.00;0.20;;;23.70;47.20;;;;;;4892550;29;20053;-62
2022/05/30 02:36:39;;;;;;;0.13;0.10;;;23.70;47.20;;;;;;4892484;29;20048;-62
2022/05/30 02:39:08;;;;;;;0.10;0.10;;;23.70;47.20;;;;;;4893328;29;20052;-62
2022/05/30 02:41:36;;;;;;;0.10;0.10;;;23.70;47.10;;;;;;4892418;29;20145;-62
2022/05/30 02:44:04;;;;;;;0.10;0.10;;;23.70;47.10;;;;;;4891961;29;20553;-61
2022/05/30 02:46:31;;;;;;;0.20;0.20;;;23.70;47.20;;;;;;4892481;29;20545;-62
2022/05/30 02:48:59;;;;;;;0.65;0.10;;;23.70;47.10;;;;;;4892884;29;20534;-61
2022/05/30 02:51:26;;;;;;;0.10;0.10;;;23.60;47.10;;;;;;4892006;29;20095;-61
2022/05/30 02:53:53;;;;;;;0.10;0.10;;;23.60;47.10;;;;;;4876116;29;20111;-61
2022/05/30 02:56:21;;;;;;;0.22;0.22;;;23.60;47.10;;;;;;4891966;29;20140;-62
2022/05/30 02:58:49;;;;;;;0.55;0.22;;;23.60;47.10;;;;;;4887204;29;20429;-62
2022/05/30 03:01:17;;;;;;;0.10;0.10;;;23.60;47.10;;;;;;4892298;29;20490;-61
2022/05/30 03:03:45;;;;;;;0.10;0.10;;;23.60;47.10;;;;;;4892945;29;20060;-61
2022/05/30 03:06:12;;;;;;;0.20;0.20;;;23.60;47.10;;;;;;4892525;29;20045;-61
2022/05/30 03:08:40;;;;;;;0.20;0.20;;;23.60;47.10;;;;;;4892226;29;20108;-62
2022/05/30 03:11:07;;;;;;;0.20;0.20;;;23.60;47.10;;;;;;4892345;29;20080;-61
2022/05/30 03:13:35;;;;;;;0.13;0.13;;;23.60;47.10;;;;;;4892266;29;20056;-64
2022/05/30 03:16:02;;;;;;;0.15;0.10;;;23.70;47.20;;;;;;4890838;29;20044;-61
2022/05/30 03:18:30;;;;;;;0.20;0.20;;;23.60;47.10;;;;;;4891844;29;20048;-62
2022/05/30 03:20:57;;;;;;;0.20;0.20;;;23.60;47.10;;;;;;4892271;29;20056;-62
2022/05/30 03:23:25;;;;;;;1.27;0.20;;;23.60;47.10;;;;;;4891936;29;20572;-61
2022/05/30 03:25:52;;;;;;;0.20;0.20;;;23.60;47.10;;;;;;4892015;29;20044;-62
2022/05/30 03:28:19;;;;;;;0.10;0.10;;;23.60;47.10;;;;;;4891819;29;20085;-62
2022/05/30 03:30:47;;;;;;;0.13;0.13;;;23.60;47.10;;;;;;4885914;29;20048;-62
2022/05/30 03:33:14;;;;;;;0.10;0.10;;;23.60;47.10;;;;;;4890673;29;20096;-61
2022/05/30 03:35:41;;;;;;;0.10;0.10;;;23.60;47.10;;;;;;4891527;29;20079;-62
2022/05/30 03:38:10;;;;;;;0.10;0.10;;;23.60;47.10;;;;;;4890264;29;20108;-62
2022/05/30 03:40:38;;;;;;;0.20;0.20;;;23.60;47.10;;;;;;4882771;29;20049;-62
2022/05/30 03:43:09;;;;;;;0.20;0.20;;;23.60;47.20;;;;;;4888759;29;20089;-62
2022/05/30 03:45:39;;;;;;;0.40;0.40;;;23.60;47.10;;;;;;4885351;29;20147;-62
2022/05/30 03:48:07;;;;;;;0.35;0.20;;;23.60;47.10;;;;;;4889810;29;20110;-62
2022/05/30 03:50:36;;;;;;;0.57;0.17;;;23.60;47.10;;;;;;4890584;29;20128;-62
2022/05/30 03:53:07;;;;;;;0.38;0.20;;;23.70;47.20;;;;;;4890783;29;20045;-62
2022/05/30 03:55:42;;;;;;;0.20;0.20;;;23.70;47.10;;;;;;4890736;29;20049;-61
2022/05/30 03:58:11;;;;;;;0.20;0.20;;;23.70;47.10;;;;;;4891104;29;20048;-61
2022/05/30 04:00:40;;;;;;;0.10;0.10;;;23.70;47.10;;;;;;4889040;29;20290;-60
2022/05/30 04:03:08;;;;;;;0.10;0.10;;;23.70;47.00;;;;;;4891279;29;20139;-62
2022/05/30 04:05:36;;;;;;;0.20;0.20;;;23.70;47.00;;;;;;4891417;29;20505;-62
2022/05/30 04:08:03;;;;;;;0.22;0.10;;;23.70;47.00;;;;;;4890758;29;20061;-61
2022/05/30 04:10:31;;;;;;;0.10;0.10;;;23.70;46.90;;;;;;4891230;29;20045;-61
2022/05/30 04:13:05;;;;;;;0.32;0.20;;;23.80;47.00;;;;;;4891075;29;20053;-61
2022/05/30 04:15:32;;;;;;;0.20;0.13;;;23.80;46.90;;;;;;4890802;29;20093;-61
2022/05/30 04:17:59;;;;;;;0.20;0.20;;;23.70;46.90;;;;;;4890828;29;20246;-61
2022/05/30 04:20:27;;;;;;;0.20;0.20;;;23.70;46.80;;;;;;4890840;29;20581;-61
2022/05/30 04:22:54;;;;;;;0.10;0.10;;;23.80;46.90;;;;;;4889691;29;20509;-61
2022/05/30 04:25:22;;;;;;;0.20;0.20;;;23.70;46.80;;;;;;4889952;29;20462;-61
2022/05/30 04:27:49;;;;;;;0.10;0.10;;;23.80;46.80;;;;;;4890582;29;20414;-61
2022/05/30 04:30:17;;;;;;;0.10;0.10;;;23.80;46.80;;;;;;4890949;29;20080;-61
2022/05/30 04:32:44;;;;;;;0.10;0.10;;;23.70;46.80;;;;;;4886722;29;20053;-61
2022/05/30 04:35:12;;;;;;;0.10;0.10;;;23.70;46.70;;;;;;4884982;29;20509;-61
2022/05/30 04:37:39;;;;;;;0.25;0.10;;;23.80;46.80;;;;;;4886828;29;20052;-61
2022/05/30 04:40:12;;;;;;;0.10;0.10;;;23.80;46.80;;;;;;4889554;29;20525;-61
2022/05/30 04:42:40;;;;;;;0.10;0.10;;;23.80;46.80;;;;;;4881223;29;20076;-61
2022/05/30 04:45:07;;;;;;;0.10;0.10;;;23.80;46.80;;;;;;4882540;29;20041;-62
2022/05/30 04:47:36;;;;;;;0.10;0.10;;;23.80;46.70;;;;;;4879647;29;20045;-62
2022/05/30 04:50:13;;;;;;;0.00;0.00;;;23.80;46.70;;;;;;4874210;29;20053;-61
2022/05/30 04:52:42;;;;;;;0.10;0.10;;;23.80;46.70;;;;;;4873336;29;20040;-62
2022/05/30 04:55:11;;;;;;;0.15;0.15;;;23.80;46.70;;;;;;4881944;29;20103;-62
2022/05/30 04:57:43;;;;;;;0.10;0.10;;;23.90;46.70;;;;;;4889726;29;20045;-61
2022/05/30 05:00:12;;;;;;;0.20;0.10;;;23.80;46.60;;;;;;4888084;29;20123;-62
2022/05/30 05:02:39;;;;;;;0.10;0.10;;;23.80;46.60;;;;;;4885800;29;20040;-62
2022/05/30 05:05:07;;;;;;;0.10;0.10;;;23.90;46.60;;;;;;4880664;29;20048;-62
2022/05/30 05:07:41;;;;;;;0.17;0.17;;;23.90;46.50;;;;;;4883845;29;20108;-61
2022/05/30 05:10:32;;;;;;;0.20;0.10;;;23.90;46.40;;;;;;4886501;29;20565;-61
2022/05/30 05:13:00;;;;;;;0.10;0.10;;;23.90;46.20;;;;;;4882655;29;20569;-61
2022/05/30 05:15:27;;;;;;;0.10;0.10;;;23.90;46.10;;;;;;4881586;29;20073;-63
2022/05/30 05:17:55;;;;;;;1.80;0.20;;;23.90;46.20;;;;;;4873083;29;20143;-64
2022/05/30 05:20:23;;;;;;;0.57;0.30;;;23.80;46.20;;;;;;4881820;29;20056;-63
2022/05/30 05:22:51;;;;;;;0.52;0.30;;;23.70;46.40;;;;;;4881714;29;20565;-63
2022/05/30 05:25:19;;;;;;;0.22;0.22;;;23.50;46.70;;;;;;4864090;29;21261;-62
2022/05/30 05:27:48;;;;;;;0.20;0.20;;;23.30;47.00;;;;;;4874995;29;20064;-62
2022/05/30 05:30:16;;;;;;;1.73;0.22;;;23.00;47.40;;;;;;4871854;29;20401;-61
2022/05/30 05:32:43;;;;;;;0.30;0.30;;;22.80;47.80;;;;;;4874517;29;20109;-63
2022/05/30 05:35:11;;;;;;;0.35;0.35;;;22.40;47.80;;;;;;4875669;29;20517;-61
2022/05/30 05:37:38;;;;;;;0.22;0.22;;;22.10;47.80;;;;;;4877726;29;20654;-63
2022/05/30 05:40:06;;;;;;;0.50;0.50;;;21.70;47.90;;;;;;4879201;29;20136;-63
2022/05/30 05:42:33;;;;;;;3.30;0.47;;;21.40;48.40;;;;;;4882804;29;20044;-62
2022/05/30 05:45:00;;;;;;;1.60;0.68;;;21.10;49.30;;;;;;4883417;29;20048;-62
2022/05/30 05:47:28;;;;;;;0.52;0.40;;;20.80;49.20;;;;;;4881789;29;20040;-65
2022/05/30 05:49:57;;;;;;;1.95;0.60;;;20.60;49.30;;;;;;4876654;29;20129;-63
2022/05/30 05:52:28;;;;;;;2.83;1.20;;;20.30;50.10;;;;;;4878184;29;20045;-63
2022/05/30 05:54:56;;;;;;;7.38;1.95;;;20.10;50.50;;;;;;4875520;29;20068;-62
2022/05/30 05:57:27;;;;;;;1.55;1.27;;;19.80;50.30;;;;;;4877051;29;20060;-64
2022/05/30 05:59:54;;;;;;;1.00;0.95;;;19.50;51.10;;;;;;4879159;29;20060;-64
2022/05/30 06:02:27;;;;;;;0.70;0.70;;;19.50;51.70;;;;;;4878074;29;20057;-65
2022/05/30 06:04:54;;;;;;;3.95;0.60;;;19.30;51.30;;;;;;4877662;29;20102;-64
2022/05/30 06:07:21;;;;;;;0.90;0.88;;;19.20;51.50;;;;;;4877786;29;20097;-64
2022/05/30 06:09:48;;;;;;;1.95;0.70;;;19.10;52.30;;;;;;4878667;29;20505;-63
2022/05/30 06:12:16;;;;;;;1.45;0.57;;;19.00;52.60;;;;;;4877887;29;20049;-67
2022/05/30 06:14:43;;;;;;;2.05;0.80;;;19.00;51.80;;;;;;4874142;29;20570;-63
2022/05/30 06:17:11;;;;;;;0.82;0.55;;;18.80;52.30;;;;;;4882539;29;20055;-64
2022/05/30 06:19:38;;;;;;;1.73;0.95;;;18.80;52.90;;;;;;4879247;29;20222;-65
2022/05/30 06:22:06;;;;;;;1.10;1.00;;;18.70;53.00;;;;;;4881954;29;20080;-63
2022/05/30 06:24:33;;;;;;;2.42;0.80;;;18.70;52.10;;;;;;4884614;29;20040;-66
2022/05/30 06:27:06;;;;;;;1.17;0.73;;;18.60;52.60;;;;;;4882515;29;20049;-65
2022/05/30 06:29:35;;;;;;;2.00;0.93;;;18.60;53.10;;;;;;4878942;29;20072;-68
2022/05/30 06:32:04;;;;;;;1.05;0.70;;;18.50;53.80;;;;;;4882136;29;20071;-65
2022/05/30 06:34:31;;;;;;;1.77;1.23;;;18.50;52.70;;;;;;4894774;29;20048;-65
2022/05/30 06:36:58;;;;;;;1.65;0.95;;;18.40;53.20;;;;;;4882316;29;20059;-66
2022/05/30 06:39:27;;;;;;;1.95;0.90;;;18.30;53.90;;;;;;4879050;29;20577;-65
2022/05/30 06:41:54;;;;;;;1.88;1.00;;;18.40;54.30;;;;;;4884386;29;20053;-67
2022/05/30 06:44:22;;;;;;;1.40;1.00;;;18.30;53.40;;;;;;4882315;29;20123;-65
2022/05/30 06:46:49;;;;;;;1.15;1.08;;;18.30;53.20;;;;;;4882161;29;20536;-65
2022/05/30 06:49:19;;;;;;;3.22;1.05;;;18.30;54.00;;;;;;4885487;29;20053;-66
2022/05/30 06:51:46;;;;;;;2.00;0.98;;;18.30;54.00;;;;;;4886169;29;20052;-64
2022/05/30 06:54:14;;;;;;;3.92;1.67;;;18.30;53.80;;;;;;4865559;29;20056;-69
2022/05/30 06:59:31;;;;;;;1.75;1.23;;;18.30;53.90;;;;;;4884025;29;20053;-66
2022/05/30 07:02:00;;;;;;;4.00;0.90;;;18.20;54.30;;;;;;4884254;29;20520;-64
2022/05/30 07:04:32;;;;;;;3.45;1.13;;;18.20;54.60;;;;;;4881774;29;20088;-67
2022/05/30 07:07:07;;;;;;;4.93;1.65;;;18.20;54.20;;;;;;4881616;29;20084;-66
2022/05/30 07:09:35;;;;;;;1.65;1.15;;;18.10;53.90;;;;;;4885993;29;20060;-68
2022/05/30 07:12:02;;;;;;;1.45;1.10;;;18.20;54.00;;;;;;4884049;29;20283;-65
2022/05/30 07:14:30;;;;;;;2.33;1.10;;;18.10;54.70;;;;;;4884999;29;20360;-64
2022/05/30 07:16:57;;;;;;;2.40;1.20;;;18.20;54.90;;;;;;4882204;29;20060;-65
2022/05/30 07:19:24;;;;;;;1.10;1.00;;;18.20;53.80;;;;;;4882257;29;20112;-69
2022/05/30 07:21:52;;;;;;;2.20;1.00;;;18.20;53.50;;;;;;4881771;29;20052;-66
2022/05/30 07:24:19;;;;;;;2.05;1.00;;;18.20;54.50;;;;;;4883989;29;20045;-64
2022/05/30 07:26:46;;;;;;;0.98;0.90;;;18.20;54.40;;;;;;4883798;29;20072;-69
2022/05/30 07:29:13;;;;;;;1.20;0.95;;;18.20;53.80;;;;;;4883783;29;20056;-66
2022/05/30 07:31:40;;;;;;;2.17;0.88;;;18.30;53.60;;;;;;4882413;29;20138;-67
2022/05/30 07:34:08;;;;;;;1.70;1.23;;;18.30;54.00;;;;;;4880672;29;21278;-67
2022/05/30 07:36:35;;;;;;;2.83;1.20;;;18.30;54.20;;;;;;4882642;29;20048;-66
2022/05/30 07:39:04;;;;;;;2.00;1.08;;;18.20;54.30;;;;;;4884775;29;20041;-67
2022/05/30 07:41:31;;;;;;;0.70;0.63;;;18.30;54.30;;;;;;4880640;29;20048;-67
2022/05/30 07:43:58;;;;;;;1.00;0.90;;;18.30;53.80;;;;;;4883906;29;20091;-67
2022/05/30 07:46:25;;;;;;;0.85;0.77;;;18.30;54.80;;;;;;4880481;29;20120;-65
2022/05/30 07:48:53;;;;;;;1.77;0.60;;;18.30;54.50;;;;;;4883816;29;20108;-66
2022/05/30 07:51:20;;;;;;;1.10;1.00;;;18.30;54.50;;;;;;4883451;29;20060;-68
2022/05/30 07:53:47;;;;;;;1.33;0.90;;;18.30;53.50;;;;;;4882293;29;20767;-65
2022/05/30 07:56:16;;;;;;;2.53;1.13;;;18.30;53.70;;;;;;4882314;29;21477;-65
2022/05/30 07:58:45;;;;;;;0.70;0.70;;;18.30;54.20;;;;;;4887033;29;20589;-66
2022/05/30 08:01:15;;;;;;;0.98;0.95;;;18.20;54.60;;;;;;4880096;29;20048;-63
2022/05/30 08:03:43;;;;;;;2.47;1.23;;;18.20;54.20;;;;;;4878522;29;20052;-67
2022/05/30 08:06:13;;;;;;;0.75;0.75;;;18.20;53.70;;;;;;4878575;29;20131;-65
2022/05/30 08:08:42;;;;;;;1.02;1.00;;;18.20;54.10;;;;;;4881033;29;20079;-64
2022/05/30 08:11:11;;;;;;;2.28;0.60;;;18.20;54.50;;;;;;4883491;29;20096;-65
2022/05/30 08:13:39;;;;;;;2.67;0.80;;;18.10;55.00;;;;;;4879029;29;20045;-65
2022/05/30 08:16:15;;;;;;;0.90;0.90;;;18.10;54.00;;;;;;4883862;29;20089;-69
2022/05/30 08:19:05;;;;;;;2.63;0.70;;;18.10;54.50;;;;;;4882958;29;20060;-70
2022/05/30 08:21:43;;;;;;;2.75;0.95;;;18.10;55.40;;;;;;4884479;29;20044;-64
2022/05/30 08:24:10;;;;;;;0.93;0.93;;;18.20;55.30;;;;;;4880108;29;20057;-64
2022/05/30 08:26:37;;;;;;;1.95;1.65;;;18.10;54.10;;;;;;4882949;29;20120;-65
2022/05/30 08:29:04;;;;;;;1.52;1.33;;;18.10;54.00;;;;;;4880657;29;20052;-65
2022/05/30 08:31:32;;;;;;;1.00;0.85;;;18.20;55.10;;;;;;4882002;29;20052;-66
2022/05/30 08:33:59;;;;;;;5.10;0.95;;;18.20;54.50;;;;;;4879508;29;20060;-67
2022/05/30 08:36:26;;;;;;;1.23;1.08;;;18.20;53.90;;;;;;4881173;29;20100;-63
2022/05/30 08:41:46;;;;;;;2.28;0.80;;;18.10;53.70;;;;;;4881151;29;20108;-66
2022/05/30 08:41:48;;;;;;;8.10;0.93;;;18.10;54.40;;;;;;4886582;29;20052;-66
2022/05/30 08:44:16;;;;;;;1.10;0.80;;;18.10;54.10;;;;;;4875650;29;20060;-66
2022/05/30 08:47:00;;;;;;;3.20;0.90;;;18.10;54.30;;;;;;4884411;29;20045;-63
2022/05/30 08:49:45;;;;;;;0.80;0.63;;;18.00;54.80;;;;;;4881761;29;20052;-64
2022/05/30 08:52:34;;;;;;;2.78;0.70;;;18.00;53.90;;;;;;4881539;29;20077;-64
2022/05/30 08:55:41;;;;;;;4.53;0.90;;;18.00;54.20;;;;;;4881605;29;20582;-63
2022/05/30 08:58:32;;;;;;;4.22;0.85;;;17.90;55.00;;;;;;4880664;29;20139;-63
2022/05/30 09:01:05;;;;;;;2.50;1.38;;;17.90;54.60;;;;;;4882876;29;20195;-66
2022/05/30 09:06:56;;;;;;;2.70;0.80;;;17.90;54.60;;;;;;4885916;29;20045;-63
2022/05/30 09:09:55;;;;;;;3.33;1.23;;;17.90;55.00;;;;;;4883145;29;20516;-64
2022/05/30 09:12:38;;;;;;;0.98;0.70;;;17.80;54.90;;;;;;4881183;29;20104;-64
2022/05/30 09:15:16;;;;;;;1.05;0.93;;;17.80;54.20;;;;;;4877213;29;20052;-64
2022/05/30 09:18:08;;;;;;;1.20;0.70;;;17.80;54.30;;;;;;4876507;29;20510;-66
2022/05/30 09:20:37;;;;;;;2.42;0.95;;;17.80;55.10;;;;;;4879109;29;20144;-65
2022/05/30 09:23:06;;;;;;;1.30;0.70;;;17.70;55.20;;;;;;4877450;29;20057;-63
2022/05/30 09:25:56;;;;;;;0.73;0.60;;;17.80;53.80;;;;;;4882090;29;20466;-65
2022/05/30 09:28:27;;;;;;;3.45;0.82;;;17.70;54.40;;;;;;4881363;29;20486;-64
2022/05/30 09:31:14;;;;;;;1.08;0.73;;;17.70;55.10;;;;;;4881683;29;20059;-64
2022/05/30 09:33:45;;;;;;;1.75;1.00;;;17.60;55.20;;;;;;4867955;29;20100;-67
2022/05/30 09:36:20;;;;;;;2.83;0.80;;;17.60;54.20;;;;;;4884499;29;20501;-67
2022/05/30 09:39:09;;;;;;;2.25;0.68;;;17.60;55.20;;;;;;4880360;29;20048;-66
2022/05/30 09:41:57;;;;;;;1.77;1.10;;;17.50;55.60;;;;;;4882564;29;20053;-68
2022/05/30 09:44:44;;;;;;;0.70;0.70;;;17.40;55.00;;;;;;4884594;29;20100;-66
2022/05/30 09:47:18;;;;;;;2.83;0.70;;;17.40;55.10;;;;;;4877067;29;20052;-65
2022/05/30 09:49:48;;;;;;;1.83;0.82;;;17.30;55.60;;;;;;4876197;29;20136;-67
2022/05/30 09:52:37;;;;;;;5.57;0.90;;;17.30;56.00;;;;;;4879014;29;20891;-66
2022/05/30 09:55:33;;;;;;;1.05;0.88;;;17.30;56.00;;;;;;4889736;29;20063;-66
2022/05/30 09:58:03;;;;;;;1.80;0.75;;;17.30;55.80;;;;;;4886693;29;20044;-67
2022/05/30 10:00:49;;;;;;;1.27;0.70;;;17.20;55.40;;;;;;4887316;29;20083;-65
2022/05/30 10:03:30;;;;;;;2.55;0.80;;;17.20;56.30;;;;;;4888797;29;20946;-65
2022/05/30 10:06:15;;;;;;;1.88;1.05;;;17.20;56.30;;;;;;4888145;29;20108;-68
2022/05/30 10:08:46;;;;;;;0.90;0.85;;;17.20;56.00;;;;;;4887397;29;20077;-65
2022/05/30 10:11:34;;;;;;;1.38;0.90;;;17.20;55.80;;;;;;4884695;29;20498;-65
2022/05/30 10:14:23;;;;;;;0.85;0.85;;;17.20;56.80;;;;;;4883707;29;20079;-65
2022/05/30 10:16:55;;;;;;;3.10;1.10;;;17.20;56.80;;;;;;4886678;29;20045;-65
2022/05/30 10:19:28;;;;;;;0.82;0.80;;;17.10;57.00;;;;;;4880220;29;20100;-65
2022/05/30 10:28:49;;;;;;;1.10;0.90;;;17.10;57.40;;;;;;4884129;29;20833;-64
2022/05/30 10:31:42;;;;;;;2.50;0.80;;;17.10;57.10;;;;;;4888536;29;20397;-65
2022/05/30 10:34:51;;;;;;;3.28;0.70;;;17.10;57.10;;;;;;4887142;29;20044;-65
2022/05/30 10:37:46;;;;;;;1.33;0.95;;;17.10;57.90;;;;;;4889963;29;20044;-66
2022/05/30 10:40:49;;;;;;;1.20;0.77;;;17.10;57.50;;;;;;4871359;29;20189;-66
2022/05/30 10:43:42;;;;;;;1.10;0.90;;;17.20;56.10;;;;;;4885617;29;20104;-65
2022/05/30 10:46:18;;;;;;;1.42;0.93;;;17.10;57.10;;;;;;4888299;29;20116;-66
2022/05/30 10:49:08;;;;;;;4.82;0.63;;;17.10;57.70;;;;;;4885942;29;20048;-67
2022/05/30 10:52:00;;;;;;;1.42;0.70;;;17.10;56.20;;;;;;4879829;29;20072;-64
2022/05/30 10:54:48;;;;;;;1.77;1.05;;;17.10;56.30;;;;;;4887519;29;20060;-66
2022/05/30 10:57:42;;;;;;;0.50;0.50;;;17.10;57.30;;;;;;4886165;29;20056;-65
2022/05/30 11:00:16;;;;;;;0.85;0.80;;;17.10;57.00;;;;;;4880972;29;20561;-66
2022/05/30 11:03:12;;;;;;;0.55;0.55;;;17.10;56.30;;;;;;4886398;29;20059;-64
2022/05/30 11:05:50;;;;;;;0.57;0.57;;;17.10;56.40;;;;;;4885238;29;20505;-64
2022/05/30 11:08:42;;;;;;;0.60;0.60;;;17.10;56.70;;;;;;4885885;29;20456;-66
2022/05/30 11:11:39;;;;;;;0.65;0.60;;;17.10;57.10;;;;;;4897643;29;20057;-64
2022/05/30 11:14:28;;;;;;;1.85;0.60;;;17.10;56.30;;;;;;4884440;29;20045;-66
2022/05/30 11:17:23;;;;;;;0.65;0.65;;;17.10;56.20;;;;;;4886330;29;20052;-62
2022/05/30 11:20:19;;;;;;;4.55;0.60;;;17.00;56.90;;;;;;4884638;29;20060;-66
2022/05/30 11:22:52;;;;;;;1.17;0.65;;;17.00;57.50;;;;;;4880033;29;20056;-65
2022/05/30 11:25:43;;;;;;;1.17;0.65;;;17.00;56.60;;;;;;4885192;29;20052;-67
2022/05/30 11:28:20;;;;;;;;;;;17.00;56.40;;;;;;4883958;29;20911;-66
2022/05/30 11:31:20;;;;;;;0.70;0.70;;;17.00;57.20;;;;;;4883805;29;19931;-66
2022/05/30 11:34:00;;;;;;;1.33;0.80;;;17.10;57.20;;;;;;4883219;29;20048;-68
2022/05/30 11:36:56;;;;;;;1.00;0.60;;;17.10;56.90;;;;;;4886585;29;20049;-64
2022/05/30 11:39:53;;;;;;;0.85;0.85;;;17.00;56.50;;;;;;4880649;29;20059;-67
2022/05/30 11:42:37;;;;;;;1.98;1.00;;;17.00;57.00;;;;;;4877724;29;20108;-67
2022/05/30 11:45:38;;;;;;;1.77;0.98;;;17.00;57.60;;;;;;4884507;29;20418;-70
2022/05/30 11:48:16;;;;;;;0.57;0.57;;;17.00;57.30;;;;;;4885429;29;20044;-68
2022/05/30 11:50:58;;;;;;;0.98;0.70;;;17.00;56.50;;;;;;4885884;29;20056;-69
2022/05/30 11:53:58;;;;;;;1.50;0.43;;;17.00;57.50;;;;;;4884844;29;20732;-66
2022/05/30 11:57:00;;;;;;;1.30;0.60;;;17.00;57.90;;;;;;4880691;29;20498;-70
2022/05/30 11:59:57;;;;;;;1.48;0.50;;;17.00;56.70;;;;;;4884958;29;20473;-68
2022/05/30 12:02:42;;;;;;;0.73;0.70;;;17.10;57.00;;;;;;4878778;29;20099;-71
2022/05/30 12:05:47;;;;;;;1.08;0.80;;;17.10;57.50;;;;;;4886731;29;20085;-69
2022/05/30 12:08:54;;;;;;;1.95;0.88;;;17.10;57.40;;;;;;4882746;29;20542;-68
2022/05/30 12:12:01;;;;;;;2.20;0.90;;;17.10;56.70;;;;;;4885310;29;20056;-69
2022/05/30 12:15:03;;;;;;;0.70;0.55;;;17.20;57.10;;;;;;4876614;29;20053;-66
2022/05/30 12:24:37;;;;;;;1.52;0.70;;;17.10;57.10;;;;;;4883584;29;20048;-68
2022/05/30 12:27:11;;;;;;;1.35;0.65;;;17.10;57.90;;;;;;4874562;29;20454;-66
2022/05/30 12:29:48;;;;;;;1.52;0.52;;;17.10;58.10;;;;;;4888059;29;20135;-66
2022/05/30 12:32:34;;;;;;;0.63;0.63;;;17.20;56.70;;;;;;4883737;29;20056;-66
2022/05/30 12:35:21;;;;;;;2.08;1.13;;;17.20;56.80;;;;;;4883570;29;20057;-67
2022/05/30 12:38:09;;;;;;;1.88;0.82;;;17.20;57.70;;;;;;4883605;29;20454;-65
2022/05/30 12:40:52;;;;;;;1.02;0.70;;;17.20;56.40;;;;;;4884672;29;20044;-64
2022/05/30 12:50:59;;;;;;;;;;;17.20;57.30;;;;;;4884532;29;20079;-66
2022/05/30 12:54:08;;;;;;;1.73;1.00;;;17.20;56.30;;;;;;4880566;29;19934;-66
2022/05/30 12:57:01;;;;;;;1.50;1.30;;;17.30;56.80;;;;;;4881370;29;20481;-65
2022/05/30 12:59:33;;;;;;;1.67;0.88;;;17.20;56.80;;;;;;4879775;29;20053;-65
2022/05/30 13:02:03;;;;;;;2.17;0.82;;;17.20;56.50;;;;;;4880912;29;20064;-65
2022/05/30 13:04:41;;;;;;;5.68;1.95;;;17.30;56.20;;;;;;4898424;29;21837;-65
2022/05/30 13:07:15;;;;;;;3.70;1.20;;;17.30;55.90;;;;;;4885660;29;20072;-66
2022/05/30 13:09:51;;;;;;;3.92;1.20;;;17.30;56.40;;;;;;4882199;29;20152;-64
2022/05/30 13:12:52;;;;;;;3.08;1.40;;;17.40;55.50;;;;;;4879511;29;20049;-66
2022/05/30 13:18:58;;;;;;;7.05;1.70;;;17.30;55.80;;;;;;4879503;29;20064;-64
2022/05/30 13:21:28;;;;;;;9.52;1.95;;;17.30;56.70;;;;;;4884639;29;20132;-65
2022/05/30 13:23:55;;;;;;;3.38;1.55;;;17.30;55.20;;;;;;4866161;29;20068;-65
2022/05/30 13:26:23;;;;;;;6.15;2.15;;;17.30;55.10;;;;;;4881349;29;20072;-61
2022/05/30 13:28:50;;;;;;;10.52;1.55;;;17.40;56.00;;;;;;4879154;29;20065;-62
2022/05/30 13:31:19;;;;;;;7.43;1.80;;;17.40;55.50;;;;;;4885964;29;20254;-63
2022/05/30 13:33:51;;;;;;;2.63;1.13;;;17.40;55.70;;;;;;4888141;29;20119;-63
2022/05/30 13:36:33;;;;;;;5.65;1.20;;;17.30;55.20;;;;;;4873890;29;20112;-62
2022/05/30 13:39:03;;;;;;;2.00;1.40;;;17.20;55.80;;;;;;4892533;29;20142;-62
2022/05/30 13:41:39;;;;;;;2.50;1.15;;;17.20;55.80;;;;;;4880861;29;20675;-61
2022/05/30 13:44:29;;;;;;;2.67;1.17;;;17.20;56.80;;;;;;4886183;29;20047;-61
2022/05/30 13:47:07;;;;;;;0.95;0.80;;;17.20;55.70;;;;;;4885674;29;20670;-62
2022/05/30 13:49:40;;;;;;;1.83;1.00;;;17.10;55.50;;;;;;4877581;29;20053;-60
2022/05/30 13:52:13;;;;;;;2.63;1.08;;;17.10;56.70;;;;;;4880064;29;20199;-61
2022/05/30 13:54:48;;;;;;;1.65;0.95;;;17.10;56.80;;;;;;4880657;29;20497;-61
2022/05/30 13:57:16;;;;;;;2.15;1.10;;;17.10;56.70;;;;;;4883188;29;20044;-60
2022/05/30 13:59:50;;;;;;;1.67;0.95;;;17.10;55.80;;;;;;4883588;29;20051;-61
2022/05/30 14:02:43;;;;;;;2.15;1.02;;;17.10;57.10;;;;;;4883417;29;20055;-61
2022/05/30 14:05:31;;;;;;;4.93;1.58;;;17.00;57.50;;;;;;4890790;29;20052;-61